Aviation Digital Data Service (ADDS)

Output produced by METARs form (1858 UTC 25 March 2019)
found at http://www.aviationweather.gov/metar/data/
 
METAR text: RJFF 251830Z AUTO 13002KT 9999 NSC 08/04 Q1016 NOSIG RMK A3000
Conditions at: RJFF (FUKUOKA/ITAZUKE , JP) observed 1830 UTC 25 March 2019
Temperature: 8.0°C (46°F)
Dewpoint: 4.0°C (39°F) [RH = 76%]
Pressure (altimeter): 30.00 inches Hg (1016.0 mb)
Winds: from the SE (130 degrees) at 2 MPH (2 knots; 1.0 m/s)
Visibility: 6 or more miles (10+ km)
Ceiling: at least 12,000 feet AGL
Clouds: sky clear below 12,000 feet AGL
Weather: no significant weather observed at this time

METAR text: RJFF 251800Z AUTO 12002KT 9999 NSC 07/04 Q1016 NOSIG RMK A3001
Conditions at: RJFF (FUKUOKA/ITAZUKE , JP) observed 1800 UTC 25 March 2019
Temperature: 7.0°C (45°F)
Dewpoint: 4.0°C (39°F) [RH = 81%]
Pressure (altimeter): 30.00 inches Hg (1016.0 mb)
Winds: from the ESE (120 degrees) at 2 MPH (2 knots; 1.0 m/s)
Visibility: 6 or more miles (10+ km)
Ceiling: at least 12,000 feet AGL
Clouds: sky clear below 12,000 feet AGL
Weather: no significant weather observed at this time

METAR text: RJFF 251730Z AUTO 15003KT 9999 NSC 07/04 Q1016 NOSIG RMK A3002
Conditions at: RJFF (FUKUOKA/ITAZUKE , JP) observed 1730 UTC 25 March 2019
Temperature: 7.0°C (45°F)
Dewpoint: 4.0°C (39°F) [RH = 81%]
Pressure (altimeter): 30.00 inches Hg (1016.0 mb)
Winds: from the SSE (150 degrees) at 3 MPH (3 knots; 1.5 m/s)
Visibility: 6 or more miles (10+ km)
Ceiling: at least 12,000 feet AGL
Clouds: sky clear below 12,000 feet AGL
Weather: no significant weather observed at this time

METAR text: RJFF 251700Z AUTO 13003KT 9999 NSC 08/05 Q1016 NOSIG RMK A3002
Conditions at: RJFF (FUKUOKA/ITAZUKE , JP) observed 1700 UTC 25 March 2019
Temperature: 8.0°C (46°F)
Dewpoint: 5.0°C (41°F) [RH = 81%]
Pressure (altimeter): 30.00 inches Hg (1016.0 mb)
Winds: from the SE (130 degrees) at 3 MPH (3 knots; 1.5 m/s)
Visibility: 6 or more miles (10+ km)
Ceiling: at least 12,000 feet AGL
Clouds: sky clear below 12,000 feet AGL
Weather: no significant weather observed at this time

METAR text: RJFF 251630Z AUTO 00000KT 9999 NSC 08/04 Q1016 NOSIG RMK A3002
Conditions at: RJFF (FUKUOKA/ITAZUKE , JP) observed 1630 UTC 25 March 2019
Temperature: 8.0°C (46°F)
Dewpoint: 4.0°C (39°F) [RH = 76%]
Pressure (altimeter): 30.00 inches Hg (1016.0 mb)
Winds: calm
Visibility: 6 or more miles (10+ km)
Ceiling: at least 12,000 feet AGL
Clouds: sky clear below 12,000 feet AGL
Weather: no significant weather observed at this time

METAR text: RJFF 251600Z AUTO 11002KT 9999 NSC 08/04 Q1016 NOSIG RMK A3002
Conditions at: RJFF (FUKUOKA/ITAZUKE , JP) observed 1600 UTC 25 March 2019
Temperature: 8.0°C (46°F)
Dewpoint: 4.0°C (39°F) [RH = 76%]
Pressure (altimeter): 30.00 inches Hg (1016.0 mb)
Winds: from the ESE (110 degrees) at 2 MPH (2 knots; 1.0 m/s)
Visibility: 6 or more miles (10+ km)
Ceiling: at least 12,000 feet AGL
Clouds: sky clear below 12,000 feet AGL
Weather: no significant weather observed at this time

METAR text: RJFF 251530Z AUTO 11002KT 9999 NSC 07/04 Q1016 NOSIG RMK A3003
Conditions at: RJFF (FUKUOKA/ITAZUKE , JP) observed 1530 UTC 25 March 2019
Temperature: 7.0°C (45°F)
Dewpoint: 4.0°C (39°F) [RH = 81%]
Pressure (altimeter): 30.00 inches Hg (1016.0 mb)
Winds: from the ESE (110 degrees) at 2 MPH (2 knots; 1.0 m/s)
Visibility: 6 or more miles (10+ km)
Ceiling: at least 12,000 feet AGL
Clouds: sky clear below 12,000 feet AGL
Weather: no significant weather observed at this time

METAR text: RJFF 251500Z AUTO 07003KT 9999 NSC 07/03 Q1016 NOSIG RMK A3003
Conditions at: RJFF (FUKUOKA/ITAZUKE , JP) observed 1500 UTC 25 March 2019
Temperature: 7.0°C (45°F)
Dewpoint: 3.0°C (37°F) [RH = 76%]
Pressure (altimeter): 30.00 inches Hg (1016.0 mb)
Winds: from the ENE (70 degrees) at 3 MPH (3 knots; 1.5 m/s)
Visibility: 6 or more miles (10+ km)
Ceiling: at least 12,000 feet AGL
Clouds: sky clear below 12,000 feet AGL
Weather: no significant weather observed at this time

METAR text: RJFF 251430Z AUTO VRB01KT 9999 NSC 07/04 Q1016 NOSIG RMK A3002
Conditions at: RJFF (FUKUOKA/ITAZUKE , JP) observed 1430 UTC 25 March 2019
Temperature: 7.0°C (45°F)
Dewpoint: 4.0°C (39°F) [RH = 81%]
Pressure (altimeter): 30.00 inches Hg (1016.0 mb)
Winds: variable direction winds at 1 MPH (1 knots; 0.5 m/s)
Visibility: 6 or more miles (10+ km)
Ceiling: at least 12,000 feet AGL
Clouds: sky clear below 12,000 feet AGL
Weather: no significant weather observed at this time

METAR text: RJFF 251400Z AUTO 24001KT 9999 NCD 08/04 Q1016 NOSIG RMK A3002
Conditions at: RJFF (FUKUOKA/ITAZUKE , JP) observed 1400 UTC 25 March 2019
Temperature: 8.0°C (46°F)
Dewpoint: 4.0°C (39°F) [RH = 76%]
Pressure (altimeter): 30.00 inches Hg (1016.0 mb)
Winds: from the WSW (240 degrees) at 1 MPH (1 knots; 0.5 m/s)
Visibility: 6 or more miles (10+ km)
Ceiling: at least 12,000 feet AGL
Clouds: sky clear below 12,000 feet AGL
Weather: no significant weather observed at this time

METAR text: RJFF 251330Z 12003KT CAVOK 08/04 Q1016 NOSIG RMK A3002
Conditions at: RJFF (FUKUOKA/ITAZUKE , JP) observed 1330 UTC 25 March 2019
Temperature: 8.0°C (46°F)
Dewpoint: 4.0°C (39°F) [RH = 76%]
Pressure (altimeter): 30.00 inches Hg (1016.0 mb)
Winds: from the ESE (120 degrees) at 3 MPH (3 knots; 1.5 m/s)
Visibility: 6 or more miles (10+ km)
Ceiling: ceiling and visibility are OK
Clouds: unknown
Weather: no significant weather observed at this time

METAR text: RJFF 251300Z 18003KT 120V240 CAVOK 09/03 Q1017 NOSIG RMK A3003
Conditions at: RJFF (FUKUOKA/ITAZUKE , JP) observed 1300 UTC 25 March 2019
Temperature: 9.0°C (48°F)
Dewpoint: 3.0°C (37°F) [RH = 66%]
Pressure (altimeter): 30.03 inches Hg (1017.0 mb)
Winds: from the S (180 degrees) at 3 MPH (3 knots; 1.5 m/s)
Visibility: 6 or more miles (10+ km)
Ceiling: ceiling and visibility are OK
Clouds: unknown
Weather: no significant weather observed at this time

METAR text: RJFF 251230Z 12006KT CAVOK 09/04 Q1016 NOSIG RMK A3002
Conditions at: RJFF (FUKUOKA/ITAZUKE , JP) observed 1230 UTC 25 March 2019
Temperature: 9.0°C (48°F)
Dewpoint: 4.0°C (39°F) [RH = 71%]
Pressure (altimeter): 30.00 inches Hg (1016.0 mb)
Winds: from the ESE (120 degrees) at 7 MPH (6 knots; 3.1 m/s)
Visibility: 6 or more miles (10+ km)
Ceiling: ceiling and visibility are OK
Clouds: unknown
Weather: no significant weather observed at this time

METAR text: RJFF 251200Z 10008KT CAVOK 09/04 Q1017 NOSIG RMK A3003
Conditions at: RJFF (FUKUOKA/ITAZUKE , JP) observed 1200 UTC 25 March 2019
Temperature: 9.0°C (48°F)
Dewpoint: 4.0°C (39°F) [RH = 71%]
Pressure (altimeter): 30.03 inches Hg (1017.0 mb)
Winds: from the E (100 degrees) at 9 MPH (8 knots; 4.1 m/s)
Visibility: 6 or more miles (10+ km)
Ceiling: ceiling and visibility are OK
Clouds: unknown
Weather: no significant weather observed at this time

METAR text: RJFF 251130Z 13005KT 070V180 CAVOK 10/03 Q1017 NOSIG RMK A3005
Conditions at: RJFF (FUKUOKA/ITAZUKE , JP) observed 1130 UTC 25 March 2019
Temperature: 10.0°C (50°F)
Dewpoint: 3.0°C (37°F) [RH = 62%]
Pressure (altimeter): 30.03 inches Hg (1017.0 mb)
Winds: from the SE (130 degrees) at 6 MPH (5 knots; 2.6 m/s)
Visibility: 6 or more miles (10+ km)
Ceiling: ceiling and visibility are OK
Clouds: unknown
Weather: no significant weather observed at this time

METAR text: RJFF 251100Z 12004KT 090V160 CAVOK 10/03 Q1017 NOSIG RMK A3005
Conditions at: RJFF (FUKUOKA/ITAZUKE , JP) observed 1100 UTC 25 March 2019
Temperature: 10.0°C (50°F)
Dewpoint: 3.0°C (37°F) [RH = 62%]
Pressure (altimeter): 30.03 inches Hg (1017.0 mb)
Winds: from the ESE (120 degrees) at 5 MPH (4 knots; 2.1 m/s)
Visibility: 6 or more miles (10+ km)
Ceiling: ceiling and visibility are OK
Clouds: unknown
Weather: no significant weather observed at this time

METAR text: RJFF 251030Z 16008KT 130V200 9999 FEW030 SCT090 BKN110 11/03 Q1017 NOSIG RMK 1CU030 3AC090 7AC110 A3004
Conditions at: RJFF (FUKUOKA/ITAZUKE , JP) observed 1030 UTC 25 March 2019
Temperature: 11.0°C (52°F)
Dewpoint: 3.0°C (37°F) [RH = 58%]
Pressure (altimeter): 30.03 inches Hg (1017.0 mb)
Winds: from the SSE (160 degrees) at 9 MPH (8 knots; 4.1 m/s)
Visibility: 6 or more miles (10+ km)
Ceiling: 11000 feet AGL
Clouds: few clouds at 3000 feet AGL
scattered clouds at 9000 feet AGL
broken clouds at 11000 feet AGL
Weather: no significant weather observed at this time

METAR text: RJFF 251000Z 15009KT 130V190 9999 FEW030 SCT090 BKN110 11/04 Q1017 NOSIG RMK 1CU030 3AC090 7AC110 A3005
Conditions at: RJFF (FUKUOKA/ITAZUKE , JP) observed 1000 UTC 25 March 2019
Temperature: 11.0°C (52°F)
Dewpoint: 4.0°C (39°F) [RH = 62%]
Pressure (altimeter): 30.03 inches Hg (1017.0 mb)
Winds: from the SSE (150 degrees) at 10 MPH (9 knots; 4.6 m/s)
Visibility: 6 or more miles (10+ km)
Ceiling: 11000 feet AGL
Clouds: few clouds at 3000 feet AGL
scattered clouds at 9000 feet AGL
broken clouds at 11000 feet AGL
Weather: no significant weather observed at this time

METAR text: RJFF 250930Z 16012KT 9999 FEW030 SCT080 BKN100 11/03 Q1017 NOSIG RMK 1CU030 3AC080 7AC100 A3005 MOD TURB OBS AT 0908Z 10NM E STOUT BTN FL190 AND FL170 IN DES E190
Conditions at: RJFF (FUKUOKA/ITAZUKE , JP) observed 0930 UTC 25 March 2019
Temperature: 11.0°C (52°F)
Dewpoint: 3.0°C (37°F) [RH = 58%]
Pressure (altimeter): 30.03 inches Hg (1017.0 mb)
Winds: from the SSE (160 degrees) at 14 MPH (12 knots; 6.2 m/s)
Visibility: 6 or more miles (10+ km)
Ceiling: 10000 feet AGL
Clouds: few clouds at 3000 feet AGL
scattered clouds at 8000 feet AGL
broken clouds at 10000 feet AGL
Weather: no significant weather observed at this time

METAR text: RJFF 250900Z 17013KT 9999 FEW025 SCT080 BKN100 11/04 Q1017 NOSIG
Conditions at: RJFF (FUKUOKA/ITAZUKE , JP) observed 0900 UTC 25 March 2019
Temperature: 11.0°C (52°F)
Dewpoint: 4.0°C (39°F) [RH = 62%]
Pressure (altimeter): 30.03 inches Hg (1017.0 mb)
Winds: from the S (170 degrees) at 15 MPH (13 knots; 6.7 m/s)
Visibility: 6 or more miles (10+ km)
Ceiling: 10000 feet AGL
Clouds: few clouds at 2500 feet AGL
scattered clouds at 8000 feet AGL
broken clouds at 10000 feet AGL
Weather: no significant weather observed at this time

METAR text: RJFF 250830Z 18013KT 9999 FEW025 SCT080 BKN100 12/04 Q1017 NOSIG RMK 1CU025 3AC080 7AC100 A3006
Conditions at: RJFF (FUKUOKA/ITAZUKE , JP) observed 0830 UTC 25 March 2019
Temperature: 12.0°C (54°F)
Dewpoint: 4.0°C (39°F) [RH = 58%]
Pressure (altimeter): 30.03 inches Hg (1017.0 mb)
Winds: from the S (180 degrees) at 15 MPH (13 knots; 6.7 m/s)
Visibility: 6 or more miles (10+ km)
Ceiling: 10000 feet AGL
Clouds: few clouds at 2500 feet AGL
scattered clouds at 8000 feet AGL
broken clouds at 10000 feet AGL
Weather: no significant weather observed at this time

METAR text: RJFF 250800Z 14009KT 9999 FEW025 SCT080 BKN100 12/05 Q1017 NOSIG RMK 1CU025 3AC080 7AC100 A3005 MOD TURB OBS AT 0731Z 5NM S HONOK 10000FT DH8D
Conditions at: RJFF (FUKUOKA/ITAZUKE , JP) observed 0800 UTC 25 March 2019
Temperature: 12.0°C (54°F)
Dewpoint: 5.0°C (41°F) [RH = 62%]
Pressure (altimeter): 30.03 inches Hg (1017.0 mb)
Winds: from the SE (140 degrees) at 10 MPH (9 knots; 4.6 m/s)
Visibility: 6 or more miles (10+ km)
Ceiling: 10000 feet AGL
Clouds: few clouds at 2500 feet AGL
scattered clouds at 8000 feet AGL
broken clouds at 10000 feet AGL
Weather: no significant weather observed at this time

METAR text: RJFF 250730Z 13008KT 030V160 9999 FEW025 SCT080 BKN100 11/04 Q1017 NOSIG RMK 1CU025 3AC080 7AC100 A3005
Conditions at: RJFF (FUKUOKA/ITAZUKE , JP) observed 0730 UTC 25 March 2019
Temperature: 11.0°C (52°F)
Dewpoint: 4.0°C (39°F) [RH = 62%]
Pressure (altimeter): 30.03 inches Hg (1017.0 mb)
Winds: from the SE (130 degrees) at 9 MPH (8 knots; 4.1 m/s)
Visibility: 6 or more miles (10+ km)
Ceiling: 10000 feet AGL
Clouds: few clouds at 2500 feet AGL
scattered clouds at 8000 feet AGL
broken clouds at 10000 feet AGL
Weather: no significant weather observed at this time

METAR text: RJFF 250700Z 13009KT 9999 FEW030 SCT080 BKN100 12/04 Q1018 NOSIG RMK 1CU030 3AC080 7AC100 A3006
Conditions at: RJFF (FUKUOKA/ITAZUKE , JP) observed 0700 UTC 25 March 2019
Temperature: 12.0°C (54°F)
Dewpoint: 4.0°C (39°F) [RH = 58%]
Pressure (altimeter): 30.06 inches Hg (1018.0 mb)
Winds: from the SE (130 degrees) at 10 MPH (9 knots; 4.6 m/s)
Visibility: 6 or more miles (10+ km)
Ceiling: 10000 feet AGL
Clouds: few clouds at 3000 feet AGL
scattered clouds at 8000 feet AGL
broken clouds at 10000 feet AGL
Weather: no significant weather observed at this time

METAR text: RJFF 250630Z 13004KT 080V180 9999 FEW030 SCT080 BKN100 12/04 Q1017 NOSIG RMK 1CU030 3AC080 7AC100 A3005
Conditions at: RJFF (FUKUOKA/ITAZUKE , JP) observed 0630 UTC 25 March 2019
Temperature: 12.0°C (54°F)
Dewpoint: 4.0°C (39°F) [RH = 58%]
Pressure (altimeter): 30.03 inches Hg (1017.0 mb)
Winds: from the SE (130 degrees) at 5 MPH (4 knots; 2.1 m/s)
Visibility: 6 or more miles (10+ km)
Ceiling: 10000 feet AGL
Clouds: few clouds at 3000 feet AGL
scattered clouds at 8000 feet AGL
broken clouds at 10000 feet AGL
Weather: no significant weather observed at this time

METAR text: RJFF 250600Z 14007KT 9999 FEW030 SCT070 BKN090 12/04 Q1017 NOSIG RMK 1CU030 3AC070 6AC090 A3005
Conditions at: RJFF (FUKUOKA/ITAZUKE , JP) observed 0600 UTC 25 March 2019
Temperature: 12.0°C (54°F)
Dewpoint: 4.0°C (39°F) [RH = 58%]
Pressure (altimeter): 30.03 inches Hg (1017.0 mb)
Winds: from the SE (140 degrees) at 8 MPH (7 knots; 3.6 m/s)
Visibility: 6 or more miles (10+ km)
Ceiling: 9000 feet AGL
Clouds: few clouds at 3000 feet AGL
scattered clouds at 7000 feet AGL
broken clouds at 9000 feet AGL
Weather: no significant weather observed at this time

METAR text: RJFF 250530Z 14008KT 9999 FEW030 SCT070 BKN090 12/04 Q1018 NOSIG RMK 1CU030 4AC070 6AC090 A3007
Conditions at: RJFF (FUKUOKA/ITAZUKE , JP) observed 0530 UTC 25 March 2019
Temperature: 12.0°C (54°F)
Dewpoint: 4.0°C (39°F) [RH = 58%]
Pressure (altimeter): 30.06 inches Hg (1018.0 mb)
Winds: from the SE (140 degrees) at 9 MPH (8 knots; 4.1 m/s)
Visibility: 6 or more miles (10+ km)
Ceiling: 9000 feet AGL
Clouds: few clouds at 3000 feet AGL
scattered clouds at 7000 feet AGL
broken clouds at 9000 feet AGL
Weather: no significant weather observed at this time

METAR text: RJFF 250500Z 14009KT 9999 FEW030 BKN080 BKN100 12/04 Q1018 NOSIG RMK 1CU030 5AC080 7AC100 A3008
Conditions at: RJFF (FUKUOKA/ITAZUKE , JP) observed 0500 UTC 25 March 2019
Temperature: 12.0°C (54°F)
Dewpoint: 4.0°C (39°F) [RH = 58%]
Pressure (altimeter): 30.06 inches Hg (1018.0 mb)
Winds: from the SE (140 degrees) at 10 MPH (9 knots; 4.6 m/s)
Visibility: 6 or more miles (10+ km)
Ceiling: 8000 feet AGL
Clouds: few clouds at 3000 feet AGL
broken clouds at 8000 feet AGL
broken clouds at 10000 feet AGL
Weather: no significant weather observed at this time

METAR text: RJFF 250430Z 14009KT 080V160 9999 FEW030 SCT080 BKN100 12/03 Q1018 NOSIG RMK 1CU030 4AC080 6AC100 A3008
Conditions at: RJFF (FUKUOKA/ITAZUKE , JP) observed 0430 UTC 25 March 2019
Temperature: 12.0°C (54°F)
Dewpoint: 3.0°C (37°F) [RH = 54%]
Pressure (altimeter): 30.06 inches Hg (1018.0 mb)
Winds: from the SE (140 degrees) at 10 MPH (9 knots; 4.6 m/s)
Visibility: 6 or more miles (10+ km)
Ceiling: 10000 feet AGL
Clouds: few clouds at 3000 feet AGL
scattered clouds at 8000 feet AGL
broken clouds at 10000 feet AGL
Weather: no significant weather observed at this time

METAR text: RJFF 250400Z 14011KT 9999 FEW030 SCT080 BKN100 12/02 Q1018 BECMG FM0500 29006KT RMK 1CU030 4AC080 6AC100 A3008
Conditions at: RJFF (FUKUOKA/ITAZUKE , JP) observed 0400 UTC 25 March 2019
Temperature: 12.0°C (54°F)
Dewpoint: 2.0°C (36°F) [RH = 50%]
Pressure (altimeter): 30.06 inches Hg (1018.0 mb)
Winds: from the SE (140 degrees) at 13 MPH (11 knots; 5.7 m/s)
Visibility: 6 or more miles (10+ km)
Ceiling: 10000 feet AGL
Clouds: few clouds at 3000 feet AGL
scattered clouds at 8000 feet AGL
broken clouds at 10000 feet AGL
Weather: no significant weather observed at this time

METAR text: RJFF 250330Z 15009KT 070V170 9999 FEW030 SCT080 BKN110 11/02 Q1019 BECMG FM0430 29006KT
Conditions at: RJFF (FUKUOKA/ITAZUKE , JP) observed 0330 UTC 25 March 2019
Temperature: 11.0°C (52°F)
Dewpoint: 2.0°C (36°F) [RH = 54%]
Pressure (altimeter): 30.09 inches Hg (1019.0 mb)
Winds: from the SSE (150 degrees) at 10 MPH (9 knots; 4.6 m/s)
Visibility: 6 or more miles (10+ km)
Ceiling: 11000 feet AGL
Clouds: few clouds at 3000 feet AGL
scattered clouds at 8000 feet AGL
broken clouds at 11000 feet AGL
Weather: no significant weather observed at this time

METAR text: RJFF 250300Z 15007KT 9999 FEW030 BKN090 BKN110 11/02 Q1019 NOSIG RMK 1CU030 5AC090 7AC110 A3011
Conditions at: RJFF (FUKUOKA/ITAZUKE , JP) observed 0300 UTC 25 March 2019
Temperature: 11.0°C (52°F)
Dewpoint: 2.0°C (36°F) [RH = 54%]
Pressure (altimeter): 30.09 inches Hg (1019.0 mb)
Winds: from the SSE (150 degrees) at 8 MPH (7 knots; 3.6 m/s)
Visibility: 6 or more miles (10+ km)
Ceiling: 9000 feet AGL
Clouds: few clouds at 3000 feet AGL
broken clouds at 9000 feet AGL
broken clouds at 11000 feet AGL
Weather: no significant weather observed at this time

METAR text: RJFF 250230Z 15009KT 9999 FEW030 BKN090 BKN110 11/03 Q1019 NOSIG RMK 1CU030 5AC090 7AC110 A3011
Conditions at: RJFF (FUKUOKA/ITAZUKE , JP) observed 0230 UTC 25 March 2019
Temperature: 11.0°C (52°F)
Dewpoint: 3.0°C (37°F) [RH = 58%]
Pressure (altimeter): 30.09 inches Hg (1019.0 mb)
Winds: from the SSE (150 degrees) at 10 MPH (9 knots; 4.6 m/s)
Visibility: 6 or more miles (10+ km)
Ceiling: 9000 feet AGL
Clouds: few clouds at 3000 feet AGL
broken clouds at 9000 feet AGL
broken clouds at 11000 feet AGL
Weather: no significant weather observed at this time

METAR text: RJFF 250200Z 16010KT 9999 FEW030 BKN090 BKN130 11/03 Q1020 NOSIG RMK 1CU030 5AC090 7AC130 A3012
Conditions at: RJFF (FUKUOKA/ITAZUKE , JP) observed 0200 UTC 25 March 2019
Temperature: 11.0°C (52°F)
Dewpoint: 3.0°C (37°F) [RH = 58%]
Pressure (altimeter): 30.12 inches Hg (1020.0 mb)
Winds: from the SSE (160 degrees) at 12 MPH (10 knots; 5.1 m/s)
Visibility: 6 or more miles (10+ km)
Ceiling: 9000 feet AGL
Clouds: few clouds at 3000 feet AGL
broken clouds at 9000 feet AGL
broken clouds at 13000 feet AGL
Weather: no significant weather observed at this time

METAR text: RJFF 250130Z 16010KT 9999 FEW030 BKN100 BKN130 10/02 Q1020 NOSIG RMK 1CU030 5AC100 7AC130 A3013
Conditions at: RJFF (FUKUOKA/ITAZUKE , JP) observed 0130 UTC 25 March 2019
Temperature: 10.0°C (50°F)
Dewpoint: 2.0°C (36°F) [RH = 57%]
Pressure (altimeter): 30.12 inches Hg (1020.0 mb)
Winds: from the SSE (160 degrees) at 12 MPH (10 knots; 5.1 m/s)
Visibility: 6 or more miles (10+ km)
Ceiling: 10000 feet AGL
Clouds: few clouds at 3000 feet AGL
broken clouds at 10000 feet AGL
broken clouds at 13000 feet AGL
Weather: no significant weather observed at this time

METAR text: RJFF 250100Z 16009KT 9999 FEW030 BKN120 BKN140 10/02 Q1020 NOSIG RMK 1CU030 5AC120 7AC140 A3012
Conditions at: RJFF (FUKUOKA/ITAZUKE , JP) observed 0100 UTC 25 March 2019
Temperature: 10.0°C (50°F)
Dewpoint: 2.0°C (36°F) [RH = 57%]
Pressure (altimeter): 30.12 inches Hg (1020.0 mb)
Winds: from the SSE (160 degrees) at 10 MPH (9 knots; 4.6 m/s)
Visibility: 6 or more miles (10+ km)
Ceiling: 12000 feet AGL
Clouds: few clouds at 3000 feet AGL
broken clouds at 12000 feet AGL
broken clouds at 14000 feet AGL
Weather: no significant weather observed at this time

METAR text: RJFF 250030Z 18008KT 9999 FEW030 BKN130 BKN150 10/02 Q1020 NOSIG RMK 1CU030 5AC130 7AC150 A3013
Conditions at: RJFF (FUKUOKA/ITAZUKE , JP) observed 0030 UTC 25 March 2019
Temperature: 10.0°C (50°F)
Dewpoint: 2.0°C (36°F) [RH = 57%]
Pressure (altimeter): 30.12 inches Hg (1020.0 mb)
Winds: from the S (180 degrees) at 9 MPH (8 knots; 4.1 m/s)
Visibility: 6 or more miles (10+ km)
Ceiling: 13000 feet AGL
Clouds: few clouds at 3000 feet AGL
broken clouds at 13000 feet AGL
broken clouds at 15000 feet AGL
Weather: no significant weather observed at this time

METAR text: RJFF 250000Z 16009KT 9999 FEW020 BKN140 BKN150 09/01 Q1020 NOSIG RMK 1CU020 6AC140 7AC150 A3013
Conditions at: RJFF (FUKUOKA/ITAZUKE , JP) observed 0000 UTC 25 March 2019
Temperature: 9.0°C (48°F)
Dewpoint: 1.0°C (34°F) [RH = 57%]
Pressure (altimeter): 30.12 inches Hg (1020.0 mb)
Winds: from the SSE (160 degrees) at 10 MPH (9 knots; 4.6 m/s)
Visibility: 6 or more miles (10+ km)
Ceiling: 14000 feet AGL
Clouds: few clouds at 2000 feet AGL
broken clouds at 14000 feet AGL
broken clouds at 15000 feet AGL
Weather: no significant weather observed at this time

METAR text: RJFF 242330Z 16009KT 9999 FEW020 SCT140 BKN150 09/02 Q1020 NOSIG RMK 1CU020 4AC140 5AC150 A3012
Conditions at: RJFF (FUKUOKA/ITAZUKE , JP) observed 2330 UTC 24 March 2019
Temperature: 9.0°C (48°F)
Dewpoint: 2.0°C (36°F) [RH = 61%]
Pressure (altimeter): 30.12 inches Hg (1020.0 mb)
Winds: from the SSE (160 degrees) at 10 MPH (9 knots; 4.6 m/s)
Visibility: 6 or more miles (10+ km)
Ceiling: 15000 feet AGL
Clouds: few clouds at 2000 feet AGL
scattered clouds at 14000 feet AGL
broken clouds at 15000 feet AGL
Weather: no significant weather observed at this time

METAR text: RJFF 242300Z 16010KT 9999 FEW025 SCT170 BKN180 09/01 Q1020 NOSIG RMK 1CU025 3AC170 6AC180 A3012
Conditions at: RJFF (FUKUOKA/ITAZUKE , JP) observed 2300 UTC 24 March 2019
Temperature: 9.0°C (48°F)
Dewpoint: 1.0°C (34°F) [RH = 57%]
Pressure (altimeter): 30.12 inches Hg (1020.0 mb)
Winds: from the SSE (160 degrees) at 12 MPH (10 knots; 5.1 m/s)
Visibility: 6 or more miles (10+ km)
Ceiling: 18000 feet AGL
Clouds: few clouds at 2500 feet AGL
scattered clouds at 17000 feet AGL
broken clouds at 18000 feet AGL
Weather: no significant weather observed at this time

METAR text: RJFF 242230Z 16010KT 9999 FEW015 SCT030 BKN/// 08/01 Q1019 NOSIG RMK 1CU015 3CU030 A3010
Conditions at: RJFF (FUKUOKA/ITAZUKE , JP) observed 2230 UTC 24 March 2019
Temperature: 8.0°C (46°F)
Dewpoint: 1.0°C (34°F) [RH = 61%]
Pressure (altimeter): 30.09 inches Hg (1019.0 mb)
Winds: from the SSE (160 degrees) at 12 MPH (10 knots; 5.1 m/s)
Visibility: 6 or more miles (10+ km)
Ceiling: at least 12,000 feet AGL
Clouds: few clouds at 1500 feet AGL
scattered clouds at 3000 feet AGL
Weather: no significant weather observed at this time

METAR text: RJFF 242200Z 16010KT 9999 FEW015 SCT035 BKN/// 07/01 Q1019 NOSIG RMK 1CU015 4CU035 A3010
Conditions at: RJFF (FUKUOKA/ITAZUKE , JP) observed 2200 UTC 24 March 2019
Temperature: 7.0°C (45°F)
Dewpoint: 1.0°C (34°F) [RH = 66%]
Pressure (altimeter): 30.09 inches Hg (1019.0 mb)
Winds: from the SSE (160 degrees) at 12 MPH (10 knots; 5.1 m/s)
Visibility: 6 or more miles (10+ km)
Ceiling: at least 12,000 feet AGL
Clouds: few clouds at 1500 feet AGL
scattered clouds at 3500 feet AGL
Weather: no significant weather observed at this time

METAR text: RJFF 242130Z 16010KT 9999 FEW015 SCT030 BKN035 07/00 Q1019 NOSIG RMK 1CU015 3CU030 5CU035 A3010
Conditions at: RJFF (FUKUOKA/ITAZUKE , JP) observed 2130 UTC 24 March 2019
Temperature: 7.0°C (45°F)
Dewpoint: 0.0°C (32°F) [RH = 61%]
Pressure (altimeter): 30.09 inches Hg (1019.0 mb)
Winds: from the SSE (160 degrees) at 12 MPH (10 knots; 5.1 m/s)
Visibility: 6 or more miles (10+ km)
Ceiling: 3500 feet AGL
Clouds: few clouds at 1500 feet AGL
scattered clouds at 3000 feet AGL
broken clouds at 3500 feet AGL
Weather: no significant weather observed at this time

METAR text: RJFF 242100Z VRB02KT 9999 FEW015 SCT030 BKN/// 06/00 Q1019 NOSIG RMK 1CU015 3CU030 A3009
Conditions at: RJFF (FUKUOKA/ITAZUKE , JP) observed 2100 UTC 24 March 2019
Temperature: 6.0°C (43°F)
Dewpoint: 0.0°C (32°F) [RH = 65%]
Pressure (altimeter): 30.09 inches Hg (1019.0 mb)
Winds: variable direction winds at 2 MPH (2 knots; 1.0 m/s)
Visibility: 6 or more miles (10+ km)
Ceiling: at least 12,000 feet AGL
Clouds: few clouds at 1500 feet AGL
scattered clouds at 3000 feet AGL
Weather: no significant weather observed at this time

METAR text: RJFF 242030Z AUTO 16010KT 9999 BKN034 06/00 Q1018 NOSIG RMK A3009
Conditions at: RJFF (FUKUOKA/ITAZUKE , JP) observed 2030 UTC 24 March 2019
Temperature: 6.0°C (43°F)
Dewpoint: 0.0°C (32°F) [RH = 65%]
Pressure (altimeter): 30.06 inches Hg (1018.0 mb)
Winds: from the SSE (160 degrees) at 12 MPH (10 knots; 5.1 m/s)
Visibility: 6 or more miles (10+ km)
Ceiling: 3400 feet AGL
Clouds: broken clouds at 3400 feet AGL
Weather: no significant weather observed at this time

METAR text: RJFF 242000Z AUTO 13002KT 9999 FEW033 06/00 Q1018 NOSIG RMK A3009
Conditions at: RJFF (FUKUOKA/ITAZUKE , JP) observed 2000 UTC 24 March 2019
Temperature: 6.0°C (43°F)
Dewpoint: 0.0°C (32°F) [RH = 65%]
Pressure (altimeter): 30.06 inches Hg (1018.0 mb)
Winds: from the SE (130 degrees) at 2 MPH (2 knots; 1.0 m/s)
Visibility: 6 or more miles (10+ km)
Ceiling: at least 12,000 feet AGL
Clouds: few clouds at 3300 feet AGL
Weather: no significant weather observed at this time

METAR text: RJFF 241930Z AUTO 16007KT 9999 FEW031 06/00 Q1019 NOSIG RMK A3009
Conditions at: RJFF (FUKUOKA/ITAZUKE , JP) observed 1930 UTC 24 March 2019
Temperature: 6.0°C (43°F)
Dewpoint: 0.0°C (32°F) [RH = 65%]
Pressure (altimeter): 30.09 inches Hg (1019.0 mb)
Winds: from the SSE (160 degrees) at 8 MPH (7 knots; 3.6 m/s)
Visibility: 6 or more miles (10+ km)
Ceiling: at least 12,000 feet AGL
Clouds: few clouds at 3100 feet AGL
Weather: no significant weather observed at this time

METAR text: RJFF 241900Z AUTO 16005KT 9999 FEW033 06/M01 Q1019 NOSIG RMK A3010
Conditions at: RJFF (FUKUOKA/ITAZUKE , JP) observed 1900 UTC 24 March 2019
Temperature: 6.0°C (43°F)
Dewpoint: -1.0°C (30°F) [RH = 61%]
Pressure (altimeter): 30.09 inches Hg (1019.0 mb)
Winds: from the SSE (160 degrees) at 6 MPH (5 knots; 2.6 m/s)
Visibility: 6 or more miles (10+ km)
Ceiling: at least 12,000 feet AGL
Clouds: few clouds at 3300 feet AGL
Weather: no significant weather observed at this time

METAR text: RJFF 241830Z AUTO 15003KT 9999 NCD 06/M01 Q1019 NOSIG RMK A3010
Conditions at: RJFF (FUKUOKA/ITAZUKE , JP) observed 1830 UTC 24 March 2019
Temperature: 6.0°C (43°F)
Dewpoint: -1.0°C (30°F) [RH = 61%]
Pressure (altimeter): 30.09 inches Hg (1019.0 mb)
Winds: from the SSE (150 degrees) at 3 MPH (3 knots; 1.5 m/s)
Visibility: 6 or more miles (10+ km)
Ceiling: at least 12,000 feet AGL
Clouds: sky clear below 12,000 feet AGL
Weather: no significant weather observed at this time

METAR text: RJFF 241800Z AUTO 15007KT 9999 NSC 06/M01 Q1019 NOSIG RMK A3011
Conditions at: RJFF (FUKUOKA/ITAZUKE , JP) observed 1800 UTC 24 March 2019
Temperature: 6.0°C (43°F)
Dewpoint: -1.0°C (30°F) [RH = 61%]
Pressure (altimeter): 30.09 inches Hg (1019.0 mb)
Winds: from the SSE (150 degrees) at 8 MPH (7 knots; 3.6 m/s)
Visibility: 6 or more miles (10+ km)
Ceiling: at least 12,000 feet AGL
Clouds: sky clear below 12,000 feet AGL
Weather: no significant weather observed at this time

METAR text: RJFF 241730Z AUTO 16010KT 9999 NSC 06/M00 Q1020 NOSIG RMK A3012
Conditions at: RJFF (FUKUOKA/ITAZUKE , JP) observed 1730 UTC 24 March 2019
Temperature: 6.0°C (43°F)
Dewpoint: 0.0°C (32°F) [RH = 65%]
Pressure (altimeter): 30.12 inches Hg (1020.0 mb)
Winds: from the SSE (160 degrees) at 12 MPH (10 knots; 5.1 m/s)
Visibility: 6 or more miles (10+ km)
Ceiling: at least 12,000 feet AGL
Clouds: sky clear below 12,000 feet AGL
Weather: no significant weather observed at this time

METAR text: RJFF 241700Z AUTO 16007KT 9999 NCD 06/M00 Q1020 NOSIG RMK A3013
Conditions at: RJFF (FUKUOKA/ITAZUKE , JP) observed 1700 UTC 24 March 2019
Temperature: 6.0°C (43°F)
Dewpoint: 0.0°C (32°F) [RH = 65%]
Pressure (altimeter): 30.12 inches Hg (1020.0 mb)
Winds: from the SSE (160 degrees) at 8 MPH (7 knots; 3.6 m/s)
Visibility: 6 or more miles (10+ km)
Ceiling: at least 12,000 feet AGL
Clouds: sky clear below 12,000 feet AGL
Weather: no significant weather observed at this time

METAR text: RJFF 241630Z AUTO 19006KT 9999 NSC 06/01 Q1020 NOSIG RMK A3013
Conditions at: RJFF (FUKUOKA/ITAZUKE , JP) observed 1630 UTC 24 March 2019
Temperature: 6.0°C (43°F)
Dewpoint: 1.0°C (34°F) [RH = 70%]
Pressure (altimeter): 30.12 inches Hg (1020.0 mb)
Winds: from the S (190 degrees) at 7 MPH (6 knots; 3.1 m/s)
Visibility: 6 or more miles (10+ km)
Ceiling: at least 12,000 feet AGL
Clouds: sky clear below 12,000 feet AGL
Weather: no significant weather observed at this time

METAR text: RJFF 241600Z AUTO 16008KT 9999 NSC 06/01 Q1020 NOSIG RMK A3014
Conditions at: RJFF (FUKUOKA/ITAZUKE , JP) observed 1600 UTC 24 March 2019
Temperature: 6.0°C (43°F)
Dewpoint: 1.0°C (34°F) [RH = 70%]
Pressure (altimeter): 30.12 inches Hg (1020.0 mb)
Winds: from the SSE (160 degrees) at 9 MPH (8 knots; 4.1 m/s)
Visibility: 6 or more miles (10+ km)
Ceiling: at least 12,000 feet AGL
Clouds: sky clear below 12,000 feet AGL
Weather: no significant weather observed at this time

METAR text: RJFF 241530Z AUTO 15009KT 9999 NCD 06/01 Q1020 NOSIG RMK A3015
Conditions at: RJFF (FUKUOKA/ITAZUKE , JP) observed 1530 UTC 24 March 2019
Temperature: 6.0°C (43°F)
Dewpoint: 1.0°C (34°F) [RH = 70%]
Pressure (altimeter): 30.12 inches Hg (1020.0 mb)
Winds: from the SSE (150 degrees) at 10 MPH (9 knots; 4.6 m/s)
Visibility: 6 or more miles (10+ km)
Ceiling: at least 12,000 feet AGL
Clouds: sky clear below 12,000 feet AGL
Weather: no significant weather observed at this time

METAR text: RJFF 241500Z AUTO 15006KT 9999 NSC 06/01 Q1021 NOSIG RMK A3015
Conditions at: RJFF (FUKUOKA/ITAZUKE , JP) observed 1500 UTC 24 March 2019
Temperature: 6.0°C (43°F)
Dewpoint: 1.0°C (34°F) [RH = 70%]
Pressure (altimeter): 30.15 inches Hg (1021.0 mb)
Winds: from the SSE (150 degrees) at 7 MPH (6 knots; 3.1 m/s)
Visibility: 6 or more miles (10+ km)
Ceiling: at least 12,000 feet AGL
Clouds: sky clear below 12,000 feet AGL
Weather: no significant weather observed at this time

METAR text: RJFF 241430Z AUTO 17005KT 9999 NSC 06/00 Q1021 NOSIG RMK A3015
Conditions at: RJFF (FUKUOKA/ITAZUKE , JP) observed 1430 UTC 24 March 2019
Temperature: 6.0°C (43°F)
Dewpoint: 0.0°C (32°F) [RH = 65%]
Pressure (altimeter): 30.15 inches Hg (1021.0 mb)
Winds: from the S (170 degrees) at 6 MPH (5 knots; 2.6 m/s)
Visibility: 6 or more miles (10+ km)
Ceiling: at least 12,000 feet AGL
Clouds: sky clear below 12,000 feet AGL
Weather: no significant weather observed at this time

METAR text: RJFF 241400Z AUTO 20003KT 120V250 9999 NSC 07/01 Q1021 NOSIG RMK A3015
Conditions at: RJFF (FUKUOKA/ITAZUKE , JP) observed 1400 UTC 24 March 2019
Temperature: 7.0°C (45°F)
Dewpoint: 1.0°C (34°F) [RH = 66%]
Pressure (altimeter): 30.15 inches Hg (1021.0 mb)
Winds: from the SSW (200 degrees) at 3 MPH (3 knots; 1.5 m/s)
Visibility: 6 or more miles (10+ km)
Ceiling: at least 12,000 feet AGL
Clouds: sky clear below 12,000 feet AGL
Weather: no significant weather observed at this time

METAR text: RJFF 241330Z 24006KT 200V280 CAVOK 08/M01 Q1021 BECMG 16005KT
Conditions at: RJFF (FUKUOKA/ITAZUKE , JP) observed 1330 UTC 24 March 2019
Temperature: 8.0°C (46°F)
Dewpoint: -1.0°C (30°F) [RH = 53%]
Pressure (altimeter): 30.15 inches Hg (1021.0 mb)
Winds: from the WSW (240 degrees) at 7 MPH (6 knots; 3.1 m/s)
Visibility: 6 or more miles (10+ km)
Ceiling: ceiling and visibility are OK
Clouds: unknown
Weather: no significant weather observed at this time

METAR text: RJFF 241300Z VRB05KT CAVOK 08/M01 Q1021 BECMG 16005KT
Conditions at: RJFF (FUKUOKA/ITAZUKE , JP) observed 1300 UTC 24 March 2019
Temperature: 8.0°C (46°F)
Dewpoint: -1.0°C (30°F) [RH = 53%]
Pressure (altimeter): 30.15 inches Hg (1021.0 mb)
Winds: variable direction winds at 6 MPH (5 knots; 2.6 m/s)
Visibility: 6 or more miles (10+ km)
Ceiling: ceiling and visibility are OK
Clouds: unknown
Weather: no significant weather observed at this time

METAR text: RJFF 241230Z 25005KT 190V280 CAVOK 09/M02 Q1021 BECMG 21005KT RMK A3016
Conditions at: RJFF (FUKUOKA/ITAZUKE , JP) observed 1230 UTC 24 March 2019
Temperature: 9.0°C (48°F)
Dewpoint: -2.0°C (28°F) [RH = 46%]
Pressure (altimeter): 30.15 inches Hg (1021.0 mb)
Winds: from the WSW (250 degrees) at 6 MPH (5 knots; 2.6 m/s)
Visibility: 6 or more miles (10+ km)
Ceiling: ceiling and visibility are OK
Clouds: unknown
Weather: no significant weather observed at this time

METAR text: RJFF 241200Z 27007G17KT 220V030 CAVOK 09/M01 Q1021 BECMG 21005KT
Conditions at: RJFF (FUKUOKA/ITAZUKE , JP) observed 1200 UTC 24 March 2019
Temperature: 9.0°C (48°F)
Dewpoint: -1.0°C (30°F) [RH = 49%]
Pressure (altimeter): 30.15 inches Hg (1021.0 mb)
Winds: from the W (270 degrees) at 8 MPH (7 knots; 3.6 m/s)
gusting to 20 MPH (17 knots; 8.7 m/s)
Visibility: 6 or more miles (10+ km)
Ceiling: ceiling and visibility are OK
Clouds: unknown
Weather: no significant weather observed at this time

METAR text: RJFF 241130Z 28008G18KT 240V310 CAVOK 09/M00 Q1021 BECMG 21005KT RMK A3016
Conditions at: RJFF (FUKUOKA/ITAZUKE , JP) observed 1130 UTC 24 March 2019
Temperature: 9.0°C (48°F)
Dewpoint: 0.0°C (32°F) [RH = 53%]
Pressure (altimeter): 30.15 inches Hg (1021.0 mb)
Winds: from the W (280 degrees) at 9 MPH (8 knots; 4.1 m/s)
gusting to 21 MPH (18 knots; 9.3 m/s)
Visibility: 6 or more miles (10+ km)
Ceiling: ceiling and visibility are OK
Clouds: unknown
Weather: no significant weather observed at this time

METAR text: RJFF 241100Z 26009KT 190V320 CAVOK 10/00 Q1021 BECMG 21005KT
Conditions at: RJFF (FUKUOKA/ITAZUKE , JP) observed 1100 UTC 24 March 2019
Temperature: 10.0°C (50°F)
Dewpoint: 0.0°C (32°F) [RH = 50%]
Pressure (altimeter): 30.15 inches Hg (1021.0 mb)
Winds: from the W (260 degrees) at 10 MPH (9 knots; 4.6 m/s)
Visibility: 6 or more miles (10+ km)
Ceiling: ceiling and visibility are OK
Clouds: unknown
Weather: no significant weather observed at this time

METAR text: RJFF 241030Z 27008KT 250V320 CAVOK 10/00 Q1020 BECMG 21005KT RMK A3014
Conditions at: RJFF (FUKUOKA/ITAZUKE , JP) observed 1030 UTC 24 March 2019
Temperature: 10.0°C (50°F)
Dewpoint: 0.0°C (32°F) [RH = 50%]
Pressure (altimeter): 30.12 inches Hg (1020.0 mb)
Winds: from the W (270 degrees) at 9 MPH (8 knots; 4.1 m/s)
Visibility: 6 or more miles (10+ km)
Ceiling: ceiling and visibility are OK
Clouds: unknown
Weather: no significant weather observed at this time

METAR text: RJFF 241000Z 29011KT 250V330 9999 FEW030 BKN/// 10/00 Q1020 BECMG 21005KT RMK 1CU030 A3013
Conditions at: RJFF (FUKUOKA/ITAZUKE , JP) observed 1000 UTC 24 March 2019
Temperature: 10.0°C (50°F)
Dewpoint: 0.0°C (32°F) [RH = 50%]
Pressure (altimeter): 30.12 inches Hg (1020.0 mb)
Winds: from the WNW (290 degrees) at 13 MPH (11 knots; 5.7 m/s)
Visibility: 6 or more miles (10+ km)
Ceiling: at least 12,000 feet AGL
Clouds: few clouds at 3000 feet AGL
Weather: no significant weather observed at this time

METAR text: RJFF 240930Z 30010KT 9999 FEW030 SCT/// 10/M00 Q1020 NOSIG
Conditions at: RJFF (FUKUOKA/ITAZUKE , JP) observed 0930 UTC 24 March 2019
Temperature: 10.0°C (50°F)
Dewpoint: 0.0°C (32°F) [RH = 50%]
Pressure (altimeter): 30.12 inches Hg (1020.0 mb)
Winds: from the WNW (300 degrees) at 12 MPH (10 knots; 5.1 m/s)
Visibility: 6 or more miles (10+ km)
Ceiling: at least 12,000 feet AGL
Clouds: few clouds at 3000 feet AGL
Weather: no significant weather observed at this time

METAR text: RJFF 240900Z 30011KT 250V330 CAVOK 11/M01 Q1020 NOSIG RMK A3012
Conditions at: RJFF (FUKUOKA/ITAZUKE , JP) observed 0900 UTC 24 March 2019
Temperature: 11.0°C (52°F)
Dewpoint: -1.0°C (30°F) [RH = 43%]
Pressure (altimeter): 30.12 inches Hg (1020.0 mb)
Winds: from the WNW (300 degrees) at 13 MPH (11 knots; 5.7 m/s)
Visibility: 6 or more miles (10+ km)
Ceiling: ceiling and visibility are OK
Clouds: unknown
Weather: no significant weather observed at this time

METAR text: RJFF 240830Z 31011KT CAVOK 12/M02 Q1019 NOSIG RMK A3011
Conditions at: RJFF (FUKUOKA/ITAZUKE , JP) observed 0830 UTC 24 March 2019
Temperature: 12.0°C (54°F)
Dewpoint: -2.0°C (28°F) [RH = 38%]
Pressure (altimeter): 30.09 inches Hg (1019.0 mb)
Winds: from the NW (310 degrees) at 13 MPH (11 knots; 5.7 m/s)
Visibility: 6 or more miles (10+ km)
Ceiling: ceiling and visibility are OK
Clouds: unknown
Weather: no significant weather observed at this time

METAR text: RJFF 240800Z 30009KT 260V340 CAVOK 11/01 Q1019 NOSIG RMK A3010
Conditions at: RJFF (FUKUOKA/ITAZUKE , JP) observed 0800 UTC 24 March 2019
Temperature: 11.0°C (52°F)
Dewpoint: 1.0°C (34°F) [RH = 50%]
Pressure (altimeter): 30.09 inches Hg (1019.0 mb)
Winds: from the WNW (300 degrees) at 10 MPH (9 knots; 4.6 m/s)
Visibility: 6 or more miles (10+ km)
Ceiling: ceiling and visibility are OK
Clouds: unknown
Weather: no significant weather observed at this time

METAR text: RJFF 240730Z 31011KT 9999 FEW045 11/00 Q1019 NOSIG RMK 1CU045 A3010
Conditions at: RJFF (FUKUOKA/ITAZUKE , JP) observed 0730 UTC 24 March 2019
Temperature: 11.0°C (52°F)
Dewpoint: 0.0°C (32°F) [RH = 47%]
Pressure (altimeter): 30.09 inches Hg (1019.0 mb)
Winds: from the NW (310 degrees) at 13 MPH (11 knots; 5.7 m/s)
Visibility: 6 or more miles (10+ km)
Ceiling: at least 12,000 feet AGL
Clouds: few clouds at 4500 feet AGL
Weather: no significant weather observed at this time

METAR text: RJFF 240700Z 32012KT 270V340 9999 FEW045 12/00 Q1019 NOSIG RMK 1CU045 A3011
Conditions at: RJFF (FUKUOKA/ITAZUKE , JP) observed 0700 UTC 24 March 2019
Temperature: 12.0°C (54°F)
Dewpoint: 0.0°C (32°F) [RH = 44%]
Pressure (altimeter): 30.09 inches Hg (1019.0 mb)
Winds: from the NW (320 degrees) at 14 MPH (12 knots; 6.2 m/s)
Visibility: 6 or more miles (10+ km)
Ceiling: at least 12,000 feet AGL
Clouds: few clouds at 4500 feet AGL
Weather: no significant weather observed at this time

Forecast for: RJFF (FUKUOKA/ITAZUKE , JP)
Text: TAF RJFF 251706Z 2518/2700 15005KT 9999 FEW030
Forecast period: 1800 UTC 25 March 2019 to 0100 UTC 26 March 2019
Forecast type: FROM: standard forecast or significant change
Winds: from the SSE (150 degrees) at 6 MPH (5 knots; 2.6 m/s)
Visibility: 6 or more miles 10+ km)
Ceiling: at least 12,000 feet AGL
Clouds: few clouds at 3000 feet AGL
Weather: no significant weather forecast for this period
Text: BECMG 2601/2603 29011KT
Forecast period: 0100 to 0900 UTC 26 March 2019
Forecast type: BECOMING: Conditions expected to become as follows by 0300 UTC 26 March 2019
Winds: from the WNW (290 degrees) at 13 MPH (11 knots; 5.7 m/s)
Visibility: 6 or more miles 10+ km)
Ceiling: at least 12,000 feet AGL
Clouds: few clouds at 3000 feet AGL
Weather: no significant weather forecast for this period
Text: BECMG 2609/2612 15006KT
Forecast period: 0900 UTC 26 March 2019 to 0000 UTC 27 March 2019
Forecast type: BECOMING: Conditions expected to become as follows by 1200 UTC 26 March 2019
Winds: from the SSE (150 degrees) at 7 MPH (6 knots; 3.1 m/s)
Visibility: 6 or more miles 10+ km)
Ceiling: at least 12,000 feet AGL
Clouds: few clouds at 3000 feet AGL
Weather: no significant weather forecast for this period